M I D A S
Marine Information and Data Acquisition System
Tripno 1691 of the Zeeleeuw from 2009-05-08 06:45:49 to 2009-05-08 12:07:22
Back to CruiseResearch ActivitiesStationsMapUnderway DataData graphs

EquipmentUnitsComment
TimeDGPSUTC
LatitudeDGPSDM.mWGS84
LongitudeDGPSDM.mWGS84
HeadingGyrodeg 
SOGDGPSknotsSpeed over ground
COGDGPSdegCourse over ground
DepthEcho soundermeters200 kHz
Missing or incorrect values are displayed as -999
Navigation data collected by the RV Zeeleeuw from 2009-05-08 06:36:44 to 2009-05-08 12:47:16
                                                                                    Next 1000 lines
Time Latitude Longitude Heading SOG COG Depth
2009-05-08 06:36:53 51°13.664 2°55.958 127 -999 151 -999
2009-05-08 06:36:59 51°13.663 2°55.958 127 -999 22 -999
2009-05-08 06:37:04 51°13.663 2°55.958 127 -999 343 -999
2009-05-08 06:37:09 51°13.663 2°55.958 127 -999 200 -999
2009-05-08 06:37:13 51°13.663 2°55.958 127 -999 177 -999
2009-05-08 06:37:18 51°13.663 2°55.958 127 -999 240 -999
2009-05-08 06:37:24 51°13.663 2°55.958 127 -999 291 -999
2009-05-08 06:37:29 51°13.663 2°55.958 127 -999 15 -999
2009-05-08 06:37:33 51°13.663 2°55.958 127 -999 309 4.5
2009-05-08 06:37:38 51°13.663 2°55.958 127 -999 -999 -999
2009-05-08 06:37:43 51°13.664 2°55.958 127 -999 18 -999
2009-05-08 06:37:49 51°13.664 2°55.958 127 -999 213 -999
2009-05-08 06:37:53 51°13.664 2°55.958 127 -999 160 -999
2009-05-08 06:37:59 51°13.664 2°55.958 127 -999 82 -999
2009-05-08 06:38:04 51°13.664 2°55.958 127.1 -999 234 4.5
2009-05-08 06:38:09 51°13.664 2°55.958 127.1 -999 122 -999
2009-05-08 06:38:13 51°13.664 2°55.958 127.2 -999 170 -999
2009-05-08 06:38:18 51°13.664 2°55.958 127.4 -999 345 -999
2009-05-08 06:38:23 51°13.664 2°55.958 127.4 -999 336 -999
2009-05-08 06:38:29 51°13.663 2°55.958 127.4 -999 45 -999
2009-05-08 06:38:33 51°13.663 2°55.958 127.4 -999 321 4.6
2009-05-08 06:38:38 51°13.663 2°55.958 127.4 -999 320 -999
2009-05-08 06:38:43 51°13.663 2°55.958 127.4 -999 56 4.5
2009-05-08 06:38:48 51°13.663 2°55.958 127.4 -999 12 4.7
2009-05-08 06:38:53 51°13.663 2°55.958 127.4 -999 160 -999
2009-05-08 06:38:59 51°13.663 2°55.958 127.3 -999 2 -999
2009-05-08 06:39:04 51°13.663 2°55.958 127.2 -999 1 4.5
2009-05-08 06:39:09 51°13.663 2°55.958 127.1 -999 334 4.5
2009-05-08 06:39:13 51°13.663 2°55.958 127.1 -999 43 -999
2009-05-08 06:39:19 51°13.663 2°55.958 127.1 -999 342 -999
2009-05-08 06:39:24 51°13.663 2°55.958 127.1 -999 27 -999
2009-05-08 06:39:29 51°13.663 2°55.958 127.1 -999 2 -999
2009-05-08 06:39:33 51°13.662 2°55.959 127.1 -999 145 -999
2009-05-08 06:39:38 51°13.662 2°55.959 127.1 -999 116 -999
2009-05-08 06:39:44 51°13.662 2°55.959 127.1 -999 230 -999
2009-05-08 06:39:49 51°13.662 2°55.959 127.1 -999 87 -999
2009-05-08 06:39:53 51°13.662 2°55.959 127.1 -999 270 -999
2009-05-08 06:39:58 51°13.662 2°55.959 127.1 -999 329 -999
2009-05-08 06:40:04 51°13.662 2°55.959 127.1 -999 190 4.5
2009-05-08 06:40:09 51°13.663 2°55.959 127.1 -999 335 -999
2009-05-08 06:40:13 51°13.663 2°55.959 127.2 -999 20 -999
2009-05-08 06:40:19 51°13.663 2°55.958 127.3 -999 337 -999
2009-05-08 06:40:23 51°13.663 2°55.958 127.3 -999 313 4.5
2009-05-08 06:40:29 51°13.663 2°55.958 127.3 -999 2 4.5
2009-05-08 06:40:33 51°13.663 2°55.958 127.3 -999 355 -999
2009-05-08 06:40:38 51°13.663 2°55.958 127.3 -999 105 -999
2009-05-08 06:40:43 51°13.663 2°55.958 127.3 -999 220 -999
2009-05-08 06:40:49 51°13.663 2°55.958 127.2 -999 190 -999
2009-05-08 06:40:53 51°13.663 2°55.958 127.1 -999 57 4.5
2009-05-08 06:40:59 51°13.663 2°55.958 127.1 -999 191 -999
2009-05-08 06:41:03 51°13.663 2°55.958 127.3 -999 71 -999
2009-05-08 06:41:09 51°13.663 2°55.958 127.5 -999 218 -999
2009-05-08 06:41:13 51°13.663 2°55.958 127.7 -999 3 4.5
2009-05-08 06:41:18 51°13.663 2°55.958 127.7 -999 261 4.5
2009-05-08 06:41:23 51°13.663 2°55.958 127.7 -999 312 4.5
2009-05-08 06:41:29 51°13.663 2°55.958 127.5 -999 337 -999
2009-05-08 06:41:33 51°13.663 2°55.958 127.3 -999 243 -999
2009-05-08 06:41:39 51°13.663 2°55.959 127.1 -999 131 -999
2009-05-08 06:41:43 51°13.663 2°55.959 127.1 -999 187 4.5
2009-05-08 06:41:49 51°13.663 2°55.959 127.3 -999 121 4.5
2009-05-08 06:41:53 51°13.663 2°55.959 127.5 -999 127 4.5
2009-05-08 06:41:58 51°13.663 2°55.959 127.7 -999 129 4.5
2009-05-08 06:42:03 51°13.663 2°55.959 127.8 -999 143 4.5
2009-05-08 06:42:08 51°13.663 2°55.959 128.1 -999 163 4.5
2009-05-08 06:42:13 51°13.663 2°55.959 128.3 -999 158 4.5
2009-05-08 06:42:18 51°13.663 2°55.959 128.6 -999 18 4.6
2009-05-08 06:42:23 51°13.663 2°55.959 128.7 -999 60 -999
2009-05-08 06:42:28 51°13.663 2°55.959 128.7 -999 70 4.5
2009-05-08 06:42:33 51°13.663 2°55.959 128.7 -999 101 4.5
2009-05-08 06:42:37 51°13.663 2°55.959 128.7 -999 138 4.5
2009-05-08 06:42:42 51°13.663 2°55.959 128.7 -999 112 4.5
2009-05-08 06:42:48 51°13.663 2°55.959 128.7 -999 333 -999
2009-05-08 06:42:53 51°13.663 2°55.959 128.7 -999 58 -999
2009-05-08 06:42:58 51°13.663 2°55.959 128.7 -999 212 4.5
2009-05-08 06:43:03 51°13.663 2°55.959 128.7 -999 327 4.5
2009-05-08 06:43:08 51°13.663 2°55.959 128.7 -999 338 4.6
2009-05-08 06:43:13 51°13.663 2°55.959 128.7 -999 97 4.6
2009-05-08 06:43:18 51°13.663 2°55.959 128.7 -999 59 4.5
2009-05-08 06:43:23 51°13.663 2°55.959 128.7 -999 75 4.5
2009-05-08 06:43:28 51°13.663 2°55.959 128.7 -999 32 4.5
2009-05-08 06:43:33 51°13.663 2°55.959 128.7 -999 26 4.5
2009-05-08 06:43:38 51°13.663 2°55.959 128.7 -999 92 4.5
2009-05-08 06:43:42 51°13.663 2°55.959 128.7 -999 75 4.5
2009-05-08 06:43:47 51°13.663 2°55.959 128.7 -999 104 4.5
2009-05-08 06:43:52 51°13.663 2°55.959 128.7 -999 234 4.5
2009-05-08 06:43:57 51°13.663 2°55.959 128.7 -999 308 4.5
2009-05-08 06:44:02 51°13.663 2°55.959 128.7 -999 154 4.5
2009-05-08 06:44:07 51°13.663 2°55.959 128.7 -999 215 -999
2009-05-08 06:44:13 51°13.663 2°55.959 128.7 -999 197 4.5
2009-05-08 06:44:17 51°13.663 2°55.959 128.9 -999 266 4.5
2009-05-08 06:44:22 51°13.663 2°55.959 129 -999 226 4.6
2009-05-08 06:44:27 51°13.663 2°55.959 129.1 -999 228 4.5
2009-05-08 06:44:32 51°13.663 2°55.959 129.2 -999 213 4.6
2009-05-08 06:44:37 51°13.663 2°55.959 129.3 -999 296 4.6
2009-05-08 06:44:42 51°13.663 2°55.959 129.3 -999 309 4.6
2009-05-08 06:44:46 51°13.663 2°55.959 129.4 -999 347 4.6
2009-05-08 06:44:51 51°13.663 2°55.96 129.4 -999 19 4.5
2009-05-08 06:44:56 51°13.663 2°55.96 129.4 -999 80 4.5
2009-05-08 06:45:01 51°13.663 2°55.96 129.4 -999 110 4.5
2009-05-08 06:45:06 51°13.663 2°55.96 129.2 -999 112 4.5
2009-05-08 06:45:11 51°13.663 2°55.96 128.9 -999 71 4.5
2009-05-08 06:45:16 51°13.663 2°55.96 128.6 -999 115 4.6
2009-05-08 06:45:20 51°13.663 2°55.96 128.1 -999 79 4.5
2009-05-08 06:45:25 51°13.663 2°55.96 127.6 0.1 53 4.6
2009-05-08 06:45:30 51°13.663 2°55.96 127.2 -999 57 4.6
2009-05-08 06:45:35 51°13.663 2°55.96 126.8 -999 160 4.6
2009-05-08 06:45:40 51°13.663 2°55.96 126.5 -999 159 4.6
2009-05-08 06:45:45 51°13.663 2°55.96 126.4 -999 186 4.5
2009-05-08 06:45:50 51°13.663 2°55.96 126 -999 253 4.5
2009-05-08 06:45:55 51°13.663 2°55.96 125.7 -999 228 4.6
2009-05-08 06:46:00 51°13.663 2°55.96 125.6 -999 173 4.6
2009-05-08 06:46:05 51°13.663 2°55.96 125.1 -999 167 4.5
2009-05-08 06:46:10 51°13.662 2°55.96 124.9 -999 161 4.7
2009-05-08 06:46:15 51°13.662 2°55.96 124.5 -999 183 4.6
2009-05-08 06:46:20 51°13.662 2°55.96 124.2 -999 111 4.6
2009-05-08 06:46:25 51°13.662 2°55.96 123.9 -999 169 4.6
2009-05-08 06:46:30 51°13.662 2°55.96 123.5 -999 188 4.6
2009-05-08 06:46:35 51°13.662 2°55.96 123.2 -999 203 4.7
2009-05-08 06:46:40 51°13.662 2°55.96 122.8 -999 229 4.6
2009-05-08 06:46:45 51°13.662 2°55.96 122.6 -999 209 4.6
2009-05-08 06:46:50 51°13.662 2°55.96 122.1 -999 199 4.5
2009-05-08 06:46:55 51°13.662 2°55.96 121.8 -999 187 4.7
2009-05-08 06:47:00 51°13.662 2°55.96 121.3 -999 178 4.6
2009-05-08 06:47:05 51°13.662 2°55.96 120.9 -999 189 4.6
2009-05-08 06:47:10 51°13.662 2°55.96 120.6 -999 227 4.7
2009-05-08 06:47:15 51°13.662 2°55.96 120.3 -999 240 4.7
2009-05-08 06:47:20 51°13.662 2°55.96 119.8 -999 189 4.6
2009-05-08 06:47:25 51°13.661 2°55.96 119.4 -999 170 4.7
2009-05-08 06:47:30 51°13.661 2°55.96 119.1 -999 200 4.7
2009-05-08 06:47:35 51°13.661 2°55.96 118.6 -999 197 4.6
2009-05-08 06:47:40 51°13.661 2°55.96 118.2 -999 181 4.7
2009-05-08 06:47:45 51°13.661 2°55.96 117.7 -999 180 4.7
2009-05-08 06:47:50 51°13.661 2°55.96 117.2 0.1 181 4.7
2009-05-08 06:47:55 51°13.661 2°55.96 116.7 -999 183 4.7
2009-05-08 06:48:00 51°13.661 2°55.96 116.1 -999 186 4.7
2009-05-08 06:48:05 51°13.661 2°55.96 115.5 -999 190 4.7
2009-05-08 06:48:10 51°13.661 2°55.96 115 0.1 187 4.7
2009-05-08 06:48:15 51°13.661 2°55.96 114.6 -999 182 4.7
2009-05-08 06:48:20 51°13.661 2°55.959 114 -999 201 4.7
2009-05-08 06:48:25 51°13.661 2°55.959 113.5 -999 216 4.7
2009-05-08 06:48:29 51°13.661 2°55.959 113 -999 211 4.7
2009-05-08 06:48:35 51°13.661 2°55.959 112.5 0.1 330 4.7
2009-05-08 06:48:40 51°13.661 2°55.959 112.1 0.2 288 4.7
2009-05-08 06:48:45 51°13.662 2°55.958 111.9 0.7 300 4.7
2009-05-08 06:48:50 51°13.662 2°55.956 111.9 0.9 294 4.7
2009-05-08 06:48:55 51°13.663 2°55.953 111.9 1.1 296 4.8
2009-05-08 06:49:00 51°13.664 2°55.951 111.9 1.3 296 4.7
2009-05-08 06:49:05 51°13.664 2°55.948 111.9 1.4 295 4.6
2009-05-08 06:49:10 51°13.665 2°55.945 111.9 1.6 297 -999
2009-05-08 06:49:16 51°13.667 2°55.941 112 1.7 296 -999
2009-05-08 06:49:22 51°13.668 2°55.938 112 1.8 298 -999
2009-05-08 06:49:28 51°13.67 2°55.934 112 1.9 297 -999
2009-05-08 06:49:33 51°13.671 2°55.93 112 2 297 -999
2009-05-08 06:49:38 51°13.672 2°55.926 111.9 2.1 296 -999
2009-05-08 06:49:43 51°13.673 2°55.921 111.9 2.2 297 -999
2009-05-08 06:49:49 51°13.675 2°55.916 111.9 2.2 297 -999
2009-05-08 06:49:53 51°13.676 2°55.912 111.8 2.4 298 -999
2009-05-08 06:49:58 51°13.677 2°55.907 111.2 2.5 296 -999
2009-05-08 06:50:04 51°13.679 2°55.901 110.3 2.5 293 -999
2009-05-08 06:50:09 51°13.68 2°55.896 108.6 2.7 291 -999
2009-05-08 06:50:13 51°13.682 2°55.891 106.4 3 289 -999
2009-05-08 06:50:18 51°13.683 2°55.884 105.2 3 288 6.1
2009-05-08 06:50:23 51°13.684 2°55.878 103.9 2.9 285 6.1
2009-05-08 06:50:29 51°13.686 2°55.87 102.8 2.9 286 -999
2009-05-08 06:50:33 51°13.687 2°55.865 101.6 2.9 283 -999
2009-05-08 06:50:39 51°13.688 2°55.857 100.9 2.8 285 -999
2009-05-08 06:50:44 51°13.689 2°55.851 100.4 2.8 282 -999
2009-05-08 06:50:49 51°13.69 2°55.845 99.6 2.8 283 -999
2009-05-08 06:50:53 51°13.69 2°55.84 98.6 2.8 282 -999
2009-05-08 06:50:58 51°13.691 2°55.834 97.3 2.8 282 7.7
2009-05-08 06:51:04 51°13.692 2°55.827 95.9 2.8 280 -999
2009-05-08 06:51:09 51°13.692 2°55.821 93.9 2.8 279 -999
2009-05-08 06:51:13 51°13.693 2°55.816 91.7 2.7 278 -999
2009-05-08 06:51:18 51°13.693 2°55.81 90.3 2.6 277 -999
2009-05-08 06:51:24 51°13.694 2°55.803 88.5 2.6 275 -999
2009-05-08 06:51:29 51°13.694 2°55.798 86.2 2.6 273 -999
2009-05-08 06:51:33 51°13.695 2°55.794 84.3 2.6 273 -999
2009-05-08 06:51:38 51°13.694 2°55.789 82.8 2.4 270 9.1
2009-05-08 06:51:44 51°13.694 2°55.782 81.3 2.3 270 -999
2009-05-08 06:51:49 51°13.693 2°55.777 79.2 2.2 269 -999
2009-05-08 06:51:53 51°13.693 2°55.773 77.3 2.1 270 -999
2009-05-08 06:51:59 51°13.692 2°55.768 76.2 2 268 -999
2009-05-08 06:52:04 51°13.692 2°55.764 74.9 1.9 270 -999
2009-05-08 06:52:09 51°13.692 2°55.76 73.7 1.7 267 10.9
2009-05-08 06:52:13 51°13.692 2°55.757 72.3 1.4 272 -999
2009-05-08 06:52:18 51°13.692 2°55.754 70.8 1.1 273 -999
2009-05-08 06:52:24 51°13.693 2°55.752 67.8 0.9 280 -999
2009-05-08 06:52:29 51°13.693 2°55.75 64.7 0.6 294 -999
2009-05-08 06:52:33 51°13.694 2°55.749 60.6 0.5 314 11.9
2009-05-08 06:52:38 51°13.694 2°55.749 57.5 0.5 341 -999
2009-05-08 06:52:44 51°13.695 2°55.748 54.5 0.6 1 -999
2009-05-08 06:52:49 51°13.697 2°55.749 50.4 0.7 11 11.8
2009-05-08 06:52:53 51°13.698 2°55.749 46.4 0.9 15 11.9
2009-05-08 06:52:58 51°13.699 2°55.75 42.9 1 17 11.5
2009-05-08 06:53:03 51°13.7 2°55.751 38.3 1.2 17 11.4
2009-05-08 06:53:08 51°13.702 2°55.752 34.7 1.4 14 11.5
2009-05-08 06:53:13 51°13.704 2°55.753 29 1.7 13 -999
2009-05-08 06:53:18 51°13.707 2°55.754 21.9 2 9 -999
2009-05-08 06:53:24 51°13.711 2°55.755 15.7 2.2 4 -999
2009-05-08 06:53:29 51°13.714 2°55.755 7.9 2.5 359 -999
2009-05-08 06:53:33 51°13.717 2°55.754 0.9 2.8 353 -999
2009-05-08 06:53:38 51°13.721 2°55.752 355.5 3 347 10.9
2009-05-08 06:53:43 51°13.725 2°55.75 349.6 3.2 338 10.7
2009-05-08 06:53:48 51°13.73 2°55.746 344.9 3.6 332 10.5
2009-05-08 06:53:53 51°13.734 2°55.742 337.1 4.2 326 10.6
2009-05-08 06:53:58 51°13.739 2°55.735 329 4.6 320 10.6
2009-05-08 06:54:02 51°13.743 2°55.729 322.7 5.1 319 10.6
2009-05-08 06:54:08 51°13.75 2°55.719 320.6 5.5 320 9.7
2009-05-08 06:54:13 51°13.755 2°55.709 320.2 5.9 319 9.2
2009-05-08 06:54:17 51°13.76 2°55.702 319.4 6.2 318 8.9
2009-05-08 06:54:22 51°13.767 2°55.692 319.4 6.5 320 8.9
2009-05-08 06:54:27 51°13.774 2°55.683 320.5 5 321 8.9
2009-05-08 06:54:32 51°13.782 2°55.677 322.2 5.3 322 9.1
2009-05-08 06:54:37 51°13.791 2°55.669 323.6 7.3 324 9.2
2009-05-08 06:54:41 51°13.798 2°55.661 325.2 7.4 326 9.2
2009-05-08 06:54:46 51°13.806 2°55.652 327.4 7.5 328 9.3
2009-05-08 06:54:51 51°13.815 2°55.642 328.7 7.8 328 9.2
2009-05-08 06:54:56 51°13.826 2°55.634 330.2 7.9 332 9.2
2009-05-08 06:55:01 51°13.836 2°55.625 332.5 8.1 333 9.1
2009-05-08 06:55:06 51°13.846 2°55.618 335.2 8.2 336 9.2
2009-05-08 06:55:10 51°13.854 2°55.611 336.2 8.3 333 9.2
2009-05-08 06:55:16 51°13.867 2°55.6 335.8 8.4 334 9.3
2009-05-08 06:55:21 51°13.877 2°55.592 335.2 8.5 333 -999
2009-05-08 06:55:25 51°13.886 2°55.585 334.7 8.6 334 9.3
2009-05-08 06:55:30 51°13.897 2°55.577 335.3 8.7 335 9.4
2009-05-08 06:55:35 51°13.908 2°55.569 336.6 8.7 335 9.5
2009-05-08 06:55:40 51°13.919 2°55.562 338.8 8.7 338 9.5
2009-05-08 06:55:45 51°13.93 2°55.555 339.9 8.8 337 9.5
2009-05-08 06:55:50 51°13.942 2°55.548 340 9 340 9.5
2009-05-08 06:55:55 51°13.954 2°55.541 339.5 9 337 9.5
2009-05-08 06:56:00 51°13.965 2°55.533 338.6 9 336 9.5
2009-05-08 06:56:05 51°13.977 2°55.524 337.6 9.1 335 9.5
2009-05-08 06:56:10 51°13.988 2°55.516 336.7 9.1 335 9.5
2009-05-08 06:56:15 51°14 2°55.507 336.2 9.2 335 9.4
2009-05-08 06:56:20 51°14.011 2°55.498 336.5 9.2 336 9.4
2009-05-08 06:56:25 51°14.023 2°55.491 337.4 9.2 336 9.5
2009-05-08 06:56:30 51°14.035 2°55.482 336.9 9.2 335 9.5
2009-05-08 06:56:35 51°14.046 2°55.473 336.5 9.2 335 9.6
2009-05-08 06:56:40 51°14.058 2°55.465 336.6 9.2 335 9.5
2009-05-08 06:56:45 51°14.069 2°55.456 336.7 9.3 335 9.6
2009-05-08 06:56:50 51°14.081 2°55.448 337 9.3 335 9.6
2009-05-08 06:56:55 51°14.093 2°55.439 337.7 9.3 336 9.6
2009-05-08 06:57:00 51°14.104 2°55.43 338.3 9.4 336 9.7
2009-05-08 06:57:05 51°14.116 2°55.422 338.3 9.4 336 9.7
2009-05-08 06:57:10 51°14.128 2°55.413 337.3 9.4 335 9.6
2009-05-08 06:57:15 51°14.139 2°55.404 336.4 9.4 334 9.6
2009-05-08 06:57:20 51°14.151 2°55.395 336.2 9.4 334 -999
2009-05-08 06:57:25 51°14.163 2°55.386 336.5 9.4 334 9.6
2009-05-08 06:57:30 51°14.175 2°55.377 335.3 9.4 332 9.6
2009-05-08 06:57:35 51°14.187 2°55.367 333.9 9.4 332 9.3
2009-05-08 06:57:40 51°14.198 2°55.358 333.8 9.4 332 9.2
2009-05-08 06:57:45 51°14.21 2°55.347 333.1 9.4 329 9.7
2009-05-08 06:57:50 51°14.221 2°55.336 331.2 9.4 328 9.8
2009-05-08 06:57:55 51°14.231 2°55.325 328.9 9.4 325 9.9
2009-05-08 06:58:00 51°14.242 2°55.312 326.5 9.4 323 9.9
2009-05-08 06:58:05 51°14.252 2°55.299 324.6 9.3 322 9.6
2009-05-08 06:58:10 51°14.262 2°55.286 323 9.3 319 9.9
2009-05-08 06:58:15 51°14.271 2°55.272 320.6 9.3 317 10
2009-05-08 06:58:20 51°14.28 2°55.257 318.2 9.3 315 9.8
2009-05-08 06:58:25 51°14.289 2°55.242 315.8 9.3 313 9.4
2009-05-08 06:58:30 51°14.298 2°55.227 314.4 9.3 313 9.6
2009-05-08 06:58:35 51°14.307 2°55.212 314.2 9.3 313 9.9
2009-05-08 06:58:40 51°14.315 2°55.197 313.6 9.4 312 9.9
2009-05-08 06:58:45 51°14.324 2°55.181 312.6 9.4 311 10.2
2009-05-08 06:58:50 51°14.332 2°55.165 311.2 9.5 309 4.8
2009-05-08 06:58:55 51°14.34 2°55.148 309.4 9.6 307 9.8
2009-05-08 06:59:00 51°14.348 2°55.131 307.3 9.6 305 9.8
2009-05-08 06:59:05 51°14.355 2°55.113 305.6 9.6 303 10
2009-05-08 06:59:10 51°14.362 2°55.094 303.1 9.7 301 9.7
2009-05-08 06:59:15 51°14.369 2°55.076 301.3 9.8 300 9.9
2009-05-08 06:59:20 51°14.375 2°55.056 300 9.9 298 9.8
2009-05-08 06:59:25 51°14.382 2°55.037 299.3 9.9 298 9.5
2009-05-08 06:59:30 51°14.388 2°55.017 298.6 10 297 9.3
2009-05-08 06:59:35 51°14.394 2°54.998 298.4 10.1 298 9.4
2009-05-08 06:59:40 51°14.401 2°54.978 299.4 10.2 299 9.4
2009-05-08 06:59:45 51°14.409 2°54.959 301.3 10.4 300 9.5
2009-05-08 06:59:50 51°14.416 2°54.939 303.5 10.5 301 9.6
2009-05-08 06:59:55 51°14.424 2°54.918 305.7 10.8 302 9.7
2009-05-08 07:00:00 51°14.432 2°54.897 305.6 11.1 299 9.8
2009-05-08 07:00:05 51°14.439 2°54.875 304.7 11.3 300 9.8
2009-05-08 07:00:10 51°14.447 2°54.854 304.8 11.4 300 9.9
2009-05-08 07:00:15 51°14.453 2°54.83 301.3 11.6 292 9.8
2009-05-08 07:00:20 51°14.46 2°54.806 299.1 11.7 293 9.8
2009-05-08 07:00:25 51°14.465 2°54.782 294 11.8 285 9.8
2009-05-08 07:00:30 51°14.47 2°54.757 291.4 11.7 287 9.9
2009-05-08 07:00:35 51°14.472 2°54.731 286.8 11.7 279 9.7
2009-05-08 07:00:40 51°14.474 2°54.705 282.3 11.7 276 9.7
2009-05-08 07:00:45 51°14.474 2°54.68 277 11.5 269 9.6
2009-05-08 07:00:50 51°14.473 2°54.655 271.9 11.5 265 9.6
2009-05-08 07:00:54 51°14.47 2°54.635 264 11.7 259 9.6
2009-05-08 07:01:00 51°14.467 2°54.604 261.8 11.7 260 9.7
2009-05-08 07:01:05 51°14.463 2°54.578 259.4 11.8 255 9.5
2009-05-08 07:01:10 51°14.458 2°54.553 257.2 11.8 254 9.6
2009-05-08 07:01:15 51°14.454 2°54.528 256.1 11.7 253 9.5
2009-05-08 07:01:20 51°14.448 2°54.504 253.2 11.7 247 9.6
2009-05-08 07:01:25 51°14.44 2°54.481 247.5 11.7 241 9.6
2009-05-08 07:01:30 51°14.432 2°54.458 242.2 11.8 240 9.6
2009-05-08 07:01:35 51°14.424 2°54.435 240.6 11.9 239 9.6
2009-05-08 07:01:40 51°14.414 2°54.414 238.6 11.9 235 9.1
2009-05-08 07:01:45 51°14.405 2°54.392 236.7 11.9 236 8.8
2009-05-08 07:01:50 51°14.395 2°54.371 232.7 12 229 8.6
2009-05-08 07:01:55 51°14.384 2°54.351 230.9 12 232 8.7
2009-05-08 07:02:00 51°14.373 2°54.331 229.5 11.9 226 8.6
2009-05-08 07:02:05 51°14.361 2°54.312 226.3 12 225 8.4
2009-05-08 07:02:10 51°14.35 2°54.293 225.8 12 227 8.4
2009-05-08 07:02:15 51°14.337 2°54.275 225 12 222 8.3
2009-05-08 07:02:20 51°14.325 2°54.256 223.1 12.1 224 8.3
2009-05-08 07:02:25 51°14.313 2°54.238 222.7 12.2 222 8.4
2009-05-08 07:02:30 51°14.301 2°54.22 221.6 12.2 222 8.3
2009-05-08 07:02:35 51°14.289 2°54.201 222.8 12.2 226 8.3
2009-05-08 07:02:40 51°14.276 2°54.182 223.6 12.3 224 8.3
2009-05-08 07:02:45 51°14.264 2°54.163 223.6 12.3 226 8.3
2009-05-08 07:02:50 51°14.252 2°54.143 224.2 12.3 226 8.3
2009-05-08 07:02:55 51°14.24 2°54.123 224.7 12.4 226 8.3
2009-05-08 07:03:00 51°14.228 2°54.104 224.9 12.4 226 8.2
2009-05-08 07:03:05 51°14.217 2°54.084 225.8 12.4 226 8.3
2009-05-08 07:03:10 51°14.205 2°54.065 225.6 12.4 226 8.2
2009-05-08 07:03:15 51°14.193 2°54.045 225.3 12.4 226 8.2
2009-05-08 07:03:20 51°14.181 2°54.025 225.6 12.4 226 8.1
2009-05-08 07:03:25 51°14.168 2°54.006 225.3 12.4 225 8.1
2009-05-08 07:03:30 51°14.157 2°53.986 225 12.4 226 8.1
2009-05-08 07:03:35 51°14.144 2°53.966 224.7 12.4 225 8.2
2009-05-08 07:03:40 51°14.132 2°53.946 225.9 12.5 228 8.1
2009-05-08 07:03:45 51°14.121 2°53.926 227.3 12.4 227 8.1
2009-05-08 07:03:50 51°14.109 2°53.906 227.2 12.4 228 8.1
2009-05-08 07:03:55 51°14.098 2°53.886 227.9 12.4 228 8.1
2009-05-08 07:04:00 51°14.086 2°53.865 228 12.4 228 8
2009-05-08 07:04:05 51°14.075 2°53.844 228.2 12.4 230 8.1
2009-05-08 07:04:10 51°14.064 2°53.823 229 12.4 230 8.1
2009-05-08 07:04:15 51°14.053 2°53.802 229.3 12.4 231 8.1
2009-05-08 07:04:20 51°14.042 2°53.781 229.6 12.4 230 8.1
2009-05-08 07:04:25 51°14.031 2°53.76 229.9 12.4 231 8.1
2009-05-08 07:04:30 51°14.02 2°53.738 230.6 12.4 231 8.1
2009-05-08 07:04:35 51°14.009 2°53.717 230.4 12.5 231 8.1
2009-05-08 07:04:40 51°13.999 2°53.695 230.6 12.4 231 8.2
2009-05-08 07:04:45 51°13.988 2°53.674 230.6 12.5 230 8.2
2009-05-08 07:04:50 51°13.977 2°53.653 229.8 12.5 230 8.1
2009-05-08 07:04:55 51°13.965 2°53.632 230.2 12.5 230 8.2
2009-05-08 07:05:00 51°13.955 2°53.611 230.8 12.4 231 8.2
2009-05-08 07:05:05 51°13.944 2°53.589 230.4 12.5 230 8.2
2009-05-08 07:05:10 51°13.932 2°53.568 229.9 12.4 230 8.2
2009-05-08 07:05:15 51°13.921 2°53.547 229.8 12.5 230 8.2
2009-05-08 07:05:20 51°13.91 2°53.526 230.2 12.5 231 8.2
2009-05-08 07:05:25 51°13.899 2°53.505 230.1 12.4 230 8.2
2009-05-08 07:05:30 51°13.888 2°53.484 230.1 12.4 230 8.2
2009-05-08 07:05:34 51°13.879 2°53.467 230.3 12.5 230 8.2
2009-05-08 07:05:40 51°13.866 2°53.441 230.2 12.5 231 8.2
2009-05-08 07:05:45 51°13.855 2°53.42 230.6 12.4 230 8.3
2009-05-08 07:05:50 51°13.844 2°53.399 230.2 12.5 230 8.2
2009-05-08 07:05:55 51°13.833 2°53.378 230.2 12.5 230 8.2
2009-05-08 07:06:00 51°13.822 2°53.356 230.1 12.5 230 8.3
2009-05-08 07:06:05 51°13.811 2°53.335 230.1 12.5 230 8.2
2009-05-08 07:06:10 51°13.8 2°53.313 230.2 12.5 231 8.2
2009-05-08 07:06:15 51°13.789 2°53.292 230.4 12.5 230 8.3
2009-05-08 07:06:20 51°13.778 2°53.271 230.4 12.5 230 8.3
2009-05-08 07:06:25 51°13.767 2°53.25 230 12.5 230 8.3
2009-05-08 07:06:30 51°13.755 2°53.229 229.7 12.6 229 8.3
2009-05-08 07:06:35 51°13.744 2°53.207 229.9 12.5 230 8.4
2009-05-08 07:06:40 51°13.733 2°53.186 230.1 12.5 230 8.3
2009-05-08 07:06:45 51°13.722 2°53.165 229.8 12.5 230 8.4
2009-05-08 07:06:50 51°13.71 2°53.144 229.7 12.5 229 8.4
2009-05-08 07:06:55 51°13.699 2°53.123 229.4 12 230 8.4
2009-05-08 07:07:00 51°13.689 2°53.104 229.4 11.2 231 8.4
2009-05-08 07:07:05 51°13.68 2°53.085 230.5 10.6 231 8.4
2009-05-08 07:07:10 51°13.671 2°53.068 230.8 10.1 231 8.5
2009-05-08 07:07:15 51°13.663 2°53.052 231 9.4 231 8.6
2009-05-08 07:07:20 51°13.655 2°53.036 231 8.9 231 8.7
2009-05-08 07:07:25 51°13.648 2°53.022 230.9 8.4 230 8.7
2009-05-08 07:07:30 51°13.641 2°53.008 229.9 8 230 8.7
2009-05-08 07:07:35 51°13.634 2°52.995 229.4 7.7 230 8.7
2009-05-08 07:07:40 51°13.627 2°52.983 229.1 7.4 229 8.6
2009-05-08 07:07:45 51°13.621 2°52.97 229 7.2 229 8.6
2009-05-08 07:07:50 51°13.615 2°52.958 228.9 7 228 8.7
2009-05-08 07:07:55 51°13.609 2°52.947 228.9 6.8 229 8.7
2009-05-08 07:08:00 51°13.603 2°52.936 228.6 6.5 228 8.7
2009-05-08 07:08:05 51°13.597 2°52.926 228 6.2 228 8.7
2009-05-08 07:08:10 51°13.591 2°52.916 227.8 6.1 227 8.6
2009-05-08 07:08:15 51°13.585 2°52.907 227.2 6 226 8.7
2009-05-08 07:08:20 51°13.58 2°52.897 226.9 5.9 227 8.7
2009-05-08 07:08:25 51°13.574 2°52.888 226.7 5.8 228 8.7
2009-05-08 07:08:30 51°13.569 2°52.878 226.8 5.7 228 8.8
2009-05-08 07:08:35 51°13.563 2°52.869 227.4 5.7 228 8.9
2009-05-08 07:08:40 51°13.558 2°52.86 227.9 5.6 229 8.9
2009-05-08 07:08:45 51°13.553 2°52.85 228.2 5.6 228 8.8
2009-05-08 07:08:50 51°13.548 2°52.841 228.2 5.5 229 8.8
2009-05-08 07:08:55 51°13.543 2°52.832 228.5 5.4 228 8.8
2009-05-08 07:09:00 51°13.538 2°52.823 228.3 5.4 228 8.9
2009-05-08 07:09:05 51°13.533 2°52.815 228.3 5.3 229 8.8
2009-05-08 07:09:10 51°13.528 2°52.806 228.1 5.3 228 8.8
2009-05-08 07:09:15 51°13.524 2°52.797 228.2 5.2 228 8.7
2009-05-08 07:09:20 51°13.519 2°52.789 228.7 4.9 229 8.7
2009-05-08 07:09:25 51°13.515 2°52.781 228.4 4.7 229 8.7
2009-05-08 07:09:30 51°13.511 2°52.773 228.7 4.7 231 8.7
2009-05-08 07:09:35 51°13.507 2°52.766 229.3 4.6 230 8.8
2009-05-08 07:09:40 51°13.503 2°52.758 229.5 4.5 231 8.7
2009-05-08 07:09:45 51°13.499 2°52.75 229.9 4.4 230 8.8
2009-05-08 07:09:50 51°13.495 2°52.743 230.2 4.3 232 8.8
2009-05-08 07:09:55 51°13.492 2°52.735 230.3 4.2 231 8.8
2009-05-08 07:10:00 51°13.488 2°52.728 230.2 4.2 230 8.7
2009-05-08 07:10:05 51°13.484 2°52.722 229.7 4.1 229 8.7
2009-05-08 07:10:10 51°13.48 2°52.715 229.4 4 228 8.7
2009-05-08 07:10:15 51°13.477 2°52.709 228.6 3.8 228 8.6
2009-05-08 07:10:20 51°13.473 2°52.703 228 3.8 225 8.7
2009-05-08 07:10:25 51°13.47 2°52.697 227.4 3.7 227 8.7
2009-05-08 07:10:30 51°13.466 2°52.691 226.5 3.6 225 8.7
2009-05-08 07:10:35 51°13.463 2°52.685 226 3.6 228 8.7
2009-05-08 07:10:40 51°13.46 2°52.679 226.1 3.4 226 8.8
2009-05-08 07:10:45 51°13.456 2°52.674 226.1 3.3 226 8.8
2009-05-08 07:10:50 51°13.453 2°52.669 226.1 3.2 226 8.8
2009-05-08 07:10:55 51°13.45 2°52.664 226.1 3.2 227 8.8
2009-05-08 07:11:00 51°13.447 2°52.659 225.9 3.1 228 8.8
2009-05-08 07:11:05 51°13.444 2°52.653 226.2 3 227 8.8
2009-05-08 07:11:10 51°13.441 2°52.649 226.3 3 227 8.9
2009-05-08 07:11:15 51°13.439 2°52.643 226.7 2.9 230 8.8
2009-05-08 07:11:20 51°13.436 2°52.639 227.3 2.8 227 8.9
2009-05-08 07:11:25 51°13.434 2°52.634 228 2.7 231 8.9
2009-05-08 07:11:30 51°13.431 2°52.63 228.3 2.6 228 8.9
2009-05-08 07:11:35 51°13.429 2°52.625 228.7 2.6 230 8.9
2009-05-08 07:11:40 51°13.427 2°52.621 229.4 2.5 230 8.9
2009-05-08 07:11:45 51°13.425 2°52.616 230.2 2.4 231 8.8
2009-05-08 07:11:50 51°13.423 2°52.612 230.8 2.4 232 8.7
2009-05-08 07:11:55 51°13.421 2°52.608 231.3 2.4 231 8.7
2009-05-08 07:12:00 51°13.419 2°52.604 231.6 2.5 232 8.7
2009-05-08 07:12:05 51°13.416 2°52.599 232.1 2.6 232 8.7
2009-05-08 07:12:10 51°13.414 2°52.594 232.4 2.7 234 8.8
2009-05-08 07:12:15 51°13.412 2°52.589 233.1 2.8 233 8.8
2009-05-08 07:12:20 51°13.41 2°52.584 233.4 2.9 235 8.9
2009-05-08 07:12:25 51°13.407 2°52.579 233.9 3 233 8.8
2009-05-08 07:12:30 51°13.405 2°52.573 234.2 3.1 237 8.8
2009-05-08 07:12:35 51°13.402 2°52.568 234.4 3 234 8.9
2009-05-08 07:12:40 51°13.399 2°52.563 234.5 3.2 231 8.9
2009-05-08 07:12:45 51°13.396 2°52.557 233.7 3.2 230 8.8
2009-05-08 07:12:50 51°13.394 2°52.552 232.2 3.2 229 8.8
2009-05-08 07:12:55 51°13.391 2°52.546 231.6 3.3 232 8.7
2009-05-08 07:13:00 51°13.388 2°52.541 231.1 3.4 230 8.7
2009-05-08 07:13:05 51°13.385 2°52.535 230.9 3.5 233 8.8
2009-05-08 07:13:10 51°13.382 2°52.528 231 3.6 230 8.8
2009-05-08 07:13:14 51°13.379 2°52.523 230.9 3.8 232 8.8
2009-05-08 07:13:20 51°13.375 2°52.515 231.1 3.8 232 8.8
2009-05-08 07:13:25 51°13.372 2°52.508 230.9 3.9 232 8.8
2009-05-08 07:13:30 51°13.368 2°52.501 230.9 4 232 8.7
2009-05-08 07:13:35 51°13.365 2°52.494 230.9 4.1 233 8.6
2009-05-08 07:13:40 51°13.362 2°52.487 231.2 4.2 232 8.6
2009-05-08 07:13:45 51°13.358 2°52.479 231.4 4.3 234 8.8
2009-05-08 07:13:50 51°13.355 2°52.471 231.6 4.3 233 8.8
2009-05-08 07:13:55 51°13.351 2°52.464 231.5 4.3 232 8.8
2009-05-08 07:14:00 51°13.348 2°52.456 231.5 4.4 233 8.8
2009-05-08 07:14:05 51°13.344 2°52.448 231.2 4.4 232 8.8
2009-05-08 07:14:10 51°13.34 2°52.441 230.9 4.4 233 8.8
2009-05-08 07:14:15 51°13.336 2°52.433 230.7 4.5 231 8.9
2009-05-08 07:14:20 51°13.332 2°52.425 230.6 4.5 234 8.9
2009-05-08 07:14:25 51°13.329 2°52.417 231.1 4.5 233 8.8
2009-05-08 07:14:30 51°13.325 2°52.409 231.7 4.5 233 8.8
2009-05-08 07:14:35 51°13.321 2°52.4 232.5 4.6 235 8.7
2009-05-08 07:14:40 51°13.317 2°52.392 233.8 4.7 235 8.8
2009-05-08 07:14:45 51°13.314 2°52.383 235 4.7 236 8.7
2009-05-08 07:14:50 51°13.31 2°52.375 236.1 4.7 236 8.8
2009-05-08 07:14:55 51°13.307 2°52.366 237 4.7 237 8.8
2009-05-08 07:15:00 51°13.303 2°52.358 237.8 4.7 238 8.8
2009-05-08 07:15:05 51°13.3 2°52.349 238.4 4.7 239 8.9
2009-05-08 07:15:10 51°13.296 2°52.34 239.3 4.7 240 8.8
2009-05-08 07:15:14 51°13.294 2°52.333 239.8 4.7 240 8.8
2009-05-08 07:15:20 51°13.29 2°52.322 240.3 4.7 240 8.8
2009-05-08 07:15:25 51°13.287 2°52.313 240.5 4.7 241 8.9
2009-05-08 07:15:30 51°13.283 2°52.304 240.7 4.7 240 8.8
2009-05-08 07:15:35 51°13.28 2°52.295 240.6 4.7 240 8.8
2009-05-08 07:15:40 51°13.277 2°52.286 240.4 4.8 241 8.8
2009-05-08 07:15:45 51°13.273 2°52.277 240.4 4.8 240 8.8
2009-05-08 07:15:50 51°13.27 2°52.267 240.4 4.8 240 8.8
2009-05-08 07:15:55 51°13.267 2°52.258 240.3 4.8 239 8.8
2009-05-08 07:16:00 51°13.263 2°52.249 240.2 4.7 239 8.9
2009-05-08 07:16:05 51°13.26 2°52.24 239.8 4.7 239 8.8
2009-05-08 07:16:10 51°13.257 2°52.231 239.6 4.7 240 8.8
2009-05-08 07:16:15 51°13.253 2°52.222 239.6 4.8 238 8.8
2009-05-08 07:16:20 51°13.249 2°52.213 239.6 4.7 239 8.8
2009-05-08 07:16:25 51°13.246 2°52.204 239.6 4.8 238 8.8
2009-05-08 07:16:30 51°13.243 2°52.196 239.6 4.8 238 8.8
2009-05-08 07:16:35 51°13.239 2°52.187 238.9 4.7 238 8.9
2009-05-08 07:16:40 51°13.236 2°52.178 238 4.7 237 8.8
2009-05-08 07:16:45 51°13.232 2°52.17 237.1 4.7 235 8.8
2009-05-08 07:16:50 51°13.229 2°52.161 236.4 4.7 235 8.8
2009-05-08 07:16:55 51°13.225 2°52.152 235.7 4.7 235 8.9
2009-05-08 07:17:00 51°13.221 2°52.144 235.2 4.7 235 8.9
2009-05-08 07:17:05 51°13.218 2°52.135 234.9 4.7 235 8.8
2009-05-08 07:17:10 51°13.214 2°52.127 234.5 4.7 234 8.9
2009-05-08 07:17:14 51°13.211 2°52.12 234.4 4.7 235 8.9
2009-05-08 07:17:20 51°13.206 2°52.11 234 4.7 234 8.8
2009-05-08 07:17:25 51°13.203 2°52.101 233.8 4.7 234 8.8
2009-05-08 07:17:30 51°13.199 2°52.092 233.8 4.7 234 8.8
2009-05-08 07:17:35 51°13.195 2°52.084 233.8 4.7 234 8.9
2009-05-08 07:17:40 51°13.192 2°52.076 233.8 4.7 234 8.9
2009-05-08 07:17:45 51°13.188 2°52.068 233.9 4.6 233 8.9
2009-05-08 07:17:50 51°13.184 2°52.059 233.8 4.7 235 8.8
2009-05-08 07:17:55 51°13.18 2°52.051 233.6 4.7 234 8.9
2009-05-08 07:18:00 51°13.176 2°52.042 233.4 4.7 234 8.9
2009-05-08 07:18:05 51°13.172 2°52.034 233.3 4.6 233 8.8
2009-05-08 07:18:10 51°13.168 2°52.026 232.9 4.7 233 8.8
2009-05-08 07:18:15 51°13.164 2°52.018 232.6 4.7 232 8.9
2009-05-08 07:18:20 51°13.16 2°52.009 232.8 4.7 234 8.8
2009-05-08 07:18:25 51°13.156 2°52.001 233.2 4.8 233 8.8
2009-05-08 07:18:30 51°13.152 2°51.993 233.6 4.8 235 8.8
2009-05-08 07:18:35 51°13.148 2°51.984 234 4.8 233 8.8
2009-05-08 07:18:40 51°13.145 2°51.976 234.1 4.7 236 8.8
2009-05-08 07:18:45 51°13.141 2°51.968 234.1 4.7 233 8.8
2009-05-08 07:18:50 51°13.137 2°51.959 234.4 4.7 234 8.8
2009-05-08 07:18:55 51°13.133 2°51.95 234.5 4.7 234 8.8
2009-05-08 07:19:00 51°13.129 2°51.942 234.5 4.8 234 8.8
2009-05-08 07:19:05 51°13.125 2°51.933 234.5 4.8 234 8.8
2009-05-08 07:19:10 51°13.121 2°51.924 234.4 4.8 235 8.8
2009-05-08 07:19:14 51°13.118 2°51.917 234.2 4.8 235 8.9
2009-05-08 07:19:20 51°13.113 2°51.907 234.2 4.8 234 8.9
2009-05-08 07:19:25 51°13.11 2°51.898 234.1 4.9 234 8.8
2009-05-08 07:19:30 51°13.106 2°51.89 234.1 4.8 234 8.8
2009-05-08 07:19:35 51°13.102 2°51.881 234.1 4.8 234 8.8
2009-05-08 07:19:40 51°13.098 2°51.872 233.8 4.8 233 8.7
2009-05-08 07:19:45 51°13.094 2°51.864 233.8 4.8 233 8.8
2009-05-08 07:19:50 51°13.09 2°51.855 233.7 4.8 234 8.7
2009-05-08 07:19:55 51°13.086 2°51.846 233.4 4.8 234 8.7
2009-05-08 07:20:00 51°13.082 2°51.838 233.7 4.8 234 8.7
2009-05-08 07:20:05 51°13.078 2°51.83 234.1 4.8 233 8.7
2009-05-08 07:20:10 51°13.074 2°51.821 234.4 4.8 235 8.8
2009-05-08 07:20:15 51°13.07 2°51.812 234.6 4.8 234 8.8
2009-05-08 07:20:20 51°13.066 2°51.804 234.5 4.8 235 8.8
2009-05-08 07:20:25 51°13.062 2°51.795 234.5 4.8 234 8.8
2009-05-08 07:20:30 51°13.058 2°51.787 234.5 4.8 234 8.8
2009-05-08 07:20:35 51°13.054 2°51.778 234.6 4.8 234 8.8
2009-05-08 07:20:40 51°13.05 2°51.77 234.8 4.8 234 8.8
2009-05-08 07:20:45 51°13.047 2°51.761 234.8 4.8 235 8.8
2009-05-08 07:20:50 51°13.043 2°51.752 234.8 4.8 234 8.8
2009-05-08 07:20:55 51°13.039 2°51.744 234.6 4.8 234 8.8
2009-05-08 07:21:00 51°13.035 2°51.735 234.9 4.8 235 8.8
2009-05-08 07:21:05 51°13.031 2°51.726 235.2 4.8 234 8.8
2009-05-08 07:21:10 51°13.027 2°51.718 235.2 4.8 234 8.7
2009-05-08 07:21:14 51°13.024 2°51.711 235.3 4.7 234 8.8
2009-05-08 07:21:20 51°13.019 2°51.701 235.2 4.8 234 8.8
2009-05-08 07:21:25 51°13.015 2°51.692 234.9 4.8 233 8.8
2009-05-08 07:21:30 51°13.011 2°51.684 234.7 4.8 232 8.8
2009-05-08 07:21:35 51°13.007 2°51.675 234.8 4.8 233 8.8
2009-05-08 07:21:40 51°13.003 2°51.667 234.9 4.7 234 8.7
2009-05-08 07:21:45 51°12.999 2°51.658 234.8 4.8 235 8.7
2009-05-08 07:21:50 51°12.996 2°51.65 235 4.8 234 8.8
2009-05-08 07:21:55 51°12.992 2°51.641 235.2 4.8 234 8.9
2009-05-08 07:22:00 51°12.988 2°51.632 235.3 4.8 234 8.8
2009-05-08 07:22:05 51°12.984 2°51.624 235.4 4.8 233 8.8
2009-05-08 07:22:10 51°12.98 2°51.615 235 4.8 234 8.8
2009-05-08 07:22:15 51°12.976 2°51.606 234.8 4.8 234 8.8
2009-05-08 07:22:20 51°12.972 2°51.598 234.5 4.8 234 8.8
2009-05-08 07:22:25 51°12.968 2°51.589 234.7 4.8 233 8.8
2009-05-08 07:22:30 51°12.964 2°51.58 234.7 4.8 234 8.9
2009-05-08 07:22:35 51°12.96 2°51.572 234.5 4.8 233 8.8
2009-05-08 07:22:40 51°12.956 2°51.564 234.3 4.8 233 8.8
2009-05-08 07:22:45 51°12.952 2°51.556 234.4 4.9 232 8.8
2009-05-08 07:22:50 51°12.948 2°51.547 234.5 4.9 232 8.8
2009-05-08 07:22:55 51°12.944 2°51.539 234.5 4.7 231 8.7
2009-05-08 07:23:00 51°12.94 2°51.531 234.2 4.7 232 8.8
2009-05-08 07:23:05 51°12.936 2°51.522 234.1 4.7 233 8.8
2009-05-08 07:23:10 51°12.932 2°51.514 234.4 4.7 233 8.8
2009-05-08 07:23:14 51°12.929 2°51.507 234.3 4.7 234 8.8
2009-05-08 07:23:20 51°12.924 2°51.498 234.7 4.7 234 8.7
2009-05-08 07:23:25 51°12.92 2°51.489 235.2 4.8 234 8.7
2009-05-08 07:23:30 51°12.916 2°51.481 235.5 4.8 234 8.8
2009-05-08 07:23:35 51°12.913 2°51.472 235.9 4.7 234 8.8
2009-05-08 07:23:40 51°12.909 2°51.464 235.9 4.8 235 8.8
2009-05-08 07:23:45 51°12.905 2°51.455 235.7 4.7 234 8.8
2009-05-08 07:23:50 51°12.901 2°51.447 235.8 4.7 234 8.7
2009-05-08 07:23:55 51°12.897 2°51.439 235.6 4.7 233 8.8
2009-05-08 07:24:00 51°12.894 2°51.43 235.2 4.7 234 8.7
2009-05-08 07:24:05 51°12.889 2°51.422 235.1 4.7 232 8.8
2009-05-08 07:24:10 51°12.886 2°51.414 234.9 4.7 234 8.7
2009-05-08 07:24:15 51°12.882 2°51.405 234.5 4.7 232 8.7
2009-05-08 07:24:20 51°12.878 2°51.397 234.4 4.7 233 8.7
2009-05-08 07:24:25 51°12.874 2°51.389 235.2 4.7 235 8.8
2009-05-08 07:24:30 51°12.87 2°51.38 236.7 4.7 235 8.8
2009-05-08 07:24:35 51°12.867 2°51.371 238.2 4.7 238 8.8
2009-05-08 07:24:40 51°12.863 2°51.363 239.8 4.7 238 8.8
2009-05-08 07:24:45 51°12.86 2°51.354 241.1 4.6 238 8.7
2009-05-08 07:24:50 51°12.857 2°51.345 241.9 4.6 239 8.8
2009-05-08 07:24:55 51°12.854 2°51.336 242.6 4.6 240 8.8
2009-05-08 07:25:00 51°12.85 2°51.327 243.7 4.6 240 8.8
2009-05-08 07:25:05 51°12.847 2°51.318 244.5 4.6 241 8.8
2009-05-08 07:25:10 51°12.844 2°51.309 245 4.6 242 8.8
2009-05-08 07:25:15 51°12.841 2°51.3 245.5 4.6 242 8.8
2009-05-08 07:25:20 51°12.838 2°51.292 246 4.6 242 8.8
2009-05-08 07:25:25 51°12.835 2°51.283 246.3 4.6 242 8.8
2009-05-08 07:25:30 51°12.832 2°51.274 246.4 4.6 242 8.9
2009-05-08 07:25:35 51°12.829 2°51.264 246.2 4.6 242 8.8
2009-05-08 07:25:40 51°12.826 2°51.255 246.2 4.6 242 8.8
2009-05-08 07:25:45 51°12.823 2°51.247 246.2 4.6 243 8.9
2009-05-08 07:25:50 51°12.82 2°51.237 246.4 4.7 242 8.8
2009-05-08 07:25:55 51°12.817 2°51.228 246.7 4.7 243 8.8
2009-05-08 07:26:00 51°12.814 2°51.219 246.7 4.7 242 8.8
2009-05-08 07:26:05 51°12.811 2°51.21 246.7 4.7 243 8.8
2009-05-08 07:26:10 51°12.808 2°51.201 246.8 4.7 243 8.8
2009-05-08 07:26:15 51°12.806 2°51.192 246.8 4.7 243 8.9
2009-05-08 07:26:20 51°12.803 2°51.183 246.9 4.7 243 8.8
2009-05-08 07:26:25 51°12.8 2°51.173 246.9 4.7 244 8.9
2009-05-08 07:26:30 51°12.797 2°51.164 246.9 4.7 243 8.9
2009-05-08 07:26:34 51°12.794 2°51.157 247 4.7 244 8.9
2009-05-08 07:26:40 51°12.791 2°51.146 247 4.6 242 8.9
2009-05-08 07:26:45 51°12.788 2°51.137 246.8 4.6 243 8.8
2009-05-08 07:26:50 51°12.785 2°51.128 246.8 4.6 243 8.8
2009-05-08 07:26:55 51°12.782 2°51.119 246.8 4.6 243 8.8
2009-05-08 07:27:00 51°12.779 2°51.11 246.9 4.6 243 8.8
2009-05-08 07:27:05 51°12.777 2°51.1 247.1 4.6 243 8.8
2009-05-08 07:27:10 51°12.774 2°51.091 247.3 4.6 243 8.8
2009-05-08 07:27:15 51°12.771 2°51.082 246.9 4.6 244 8.9
2009-05-08 07:27:20 51°12.768 2°51.073 246.7 4.6 244 8.9
2009-05-08 07:27:25 51°12.765 2°51.063 246.7 4.7 244 8.9
2009-05-08 07:27:30 51°12.762 2°51.054 246.7 4.7 244 8.9
2009-05-08 07:27:35 51°12.759 2°51.045 246.8 4.7 244 8.9
2009-05-08 07:27:40 51°12.756 2°51.036 247 4.7 243 8.9
2009-05-08 07:27:45 51°12.754 2°51.026 246.9 4.7 243 8.8
2009-05-08 07:27:50 51°12.751 2°51.017 246.8 4.6 243 8.9
2009-05-08 07:27:55 51°12.748 2°51.008 246.5 4.6 243 8.9
2009-05-08 07:28:00 51°12.745 2°50.999 246.2 4.7 243 8.9
2009-05-08 07:28:05 51°12.742 2°50.99 246.1 4.7 243 8.9
2009-05-08 07:28:10 51°12.739 2°50.981 246.2 4.7 244 8.9
2009-05-08 07:28:15 51°12.736 2°50.971 246.3 4.6 244 8.9
2009-05-08 07:28:20 51°12.733 2°50.962 246.4 4.6 244 8.9
2009-05-08 07:28:25 51°12.731 2°50.953 246.8 4.6 244 9
2009-05-08 07:28:30 51°12.728 2°50.944 247 4.6 244 8.9
2009-05-08 07:28:34 51°12.726 2°50.936 247.3 4.6 245 8.9
2009-05-08 07:28:40 51°12.723 2°50.925 247.4 4.6 243 8.9
2009-05-08 07:28:45 51°12.72 2°50.916 247.2 4.6 245 8.9
2009-05-08 07:28:50 51°12.717 2°50.907 247.2 4.7 244 8.9
2009-05-08 07:28:55 51°12.714 2°50.898 247 4.7 244 8.9
2009-05-08 07:29:00 51°12.711 2°50.888 246.8 4.7 243 8.9
2009-05-08 07:29:05 51°12.708 2°50.879 246.5 4.6 244 8.9
2009-05-08 07:29:10 51°12.705 2°50.87 246.1 4.6 242 8.9
2009-05-08 07:29:15 51°12.702 2°50.861 245.8 4.7 242 8.9
2009-05-08 07:29:20 51°12.699 2°50.852 245.5 4.7 242 8.9
2009-05-08 07:29:25 51°12.696 2°50.843 245.1 4.7 242 8.9
2009-05-08 07:29:30 51°12.693 2°50.834 244.8 4.7 242 8.9
2009-05-08 07:29:35 51°12.69 2°50.825 244.8 4.7 243 8.9
2009-05-08 07:29:40 51°12.687 2°50.816 245.1 4.7 242 8.9
2009-05-08 07:29:45 51°12.684 2°50.806 245.4 4.7 242 8.9
2009-05-08 07:29:50 51°12.681 2°50.797 245.4 4.7 242 8.9
2009-05-08 07:29:55 51°12.678 2°50.788 245.4 4.7 242 8.9
2009-05-08 07:30:00 51°12.675 2°50.779 245.4 4.6 241 8.8
2009-05-08 07:30:05 51°12.672 2°50.77 245.2 4.6 242 8.8
2009-05-08 07:30:10 51°12.669 2°50.761 245.3 4.6 242 8.8
2009-05-08 07:30:15 51°12.666 2°50.752 245.4 4.6 243 8.8
2009-05-08 07:30:20 51°12.663 2°50.743 245.4 4.6 241 8.8
2009-05-08 07:30:25 51°12.66 2°50.734 245.4 4.6 242 8.8
2009-05-08 07:30:30 51°12.657 2°50.725 245.2 4.6 242 8.8
2009-05-08 07:30:34 51°12.654 2°50.718 245.1 4.6 242 8.8
2009-05-08 07:30:40 51°12.651 2°50.707 245.1 4.6 242 8.8
2009-05-08 07:30:45 51°12.648 2°50.698 245.2 4.7 242 8.8
2009-05-08 07:30:50 51°12.645 2°50.689 245.3 4.6 243 8.8
2009-05-08 07:30:55 51°12.642 2°50.68 245.4 4.7 242 8.8
2009-05-08 07:31:00 51°12.639 2°50.671 245.6 4.6 243 8.8
2009-05-08 07:31:05 51°12.636 2°50.662 245.6 4.6 242 8.8
2009-05-08 07:31:10 51°12.633 2°50.653 245.7 4.6 243 8.8
2009-05-08 07:31:15 51°12.63 2°50.644 245.7 4.6 242 8.8
2009-05-08 07:31:20 51°12.627 2°50.635 245.7 4.6 243 8.9
2009-05-08 07:31:25 51°12.624 2°50.626 245.7 4.7 242 8.8
2009-05-08 07:31:30 51°12.621 2°50.617 245.7 4.6 242 8.9
2009-05-08 07:31:35 51°12.618 2°50.608 245.6 4.6 242 8.8
2009-05-08 07:31:40 51°12.615 2°50.599 245.1 4.6 242 8.8
2009-05-08 07:31:45 51°12.612 2°50.59 244.9 4.6 243 8.9
2009-05-08 07:31:50 51°12.609 2°50.581 245.1 4.6 241 8.8
2009-05-08 07:31:55 51°12.606 2°50.572 245 4.5 242 8.8
2009-05-08 07:32:00 51°12.604 2°50.563 244.9 4.6 242 8.8
2009-05-08 07:32:05 51°12.601 2°50.555 244.9 4.5 242 8.8
2009-05-08 07:32:10 51°12.598 2°50.546 245.1 4.6 242 8.8
2009-05-08 07:32:15 51°12.595 2°50.537 245 4.6 243 8.8
2009-05-08 07:32:20 51°12.592 2°50.528 245 4.6 242 8.8
2009-05-08 07:32:25 51°12.589 2°50.519 245.3 4.6 242 8.8
2009-05-08 07:32:30 51°12.586 2°50.51 245.4 4.6 243 8.8
2009-05-08 07:32:34 51°12.584 2°50.503 245.5 4.6 242 8.8
2009-05-08 07:32:40 51°12.58 2°50.492 245.4 4.7 242 8.8
2009-05-08 07:32:45 51°12.577 2°50.483 245.3 4.6 242 8.8
2009-05-08 07:32:50 51°12.574 2°50.474 245.1 4.6 242 8.7
2009-05-08 07:32:55 51°12.571 2°50.465 244.8 4.6 241 8.8
2009-05-08 07:33:00 51°12.568 2°50.456 244.5 4.6 242 8.8
2009-05-08 07:33:05 51°12.565 2°50.447 244.4 4.6 242 8.8
2009-05-08 07:33:10 51°12.562 2°50.439 244.3 4.6 242 8.8
2009-05-08 07:33:15 51°12.559 2°50.43 244.3 4.6 242 8.8
2009-05-08 07:33:20 51°12.556 2°50.421 244.3 4.6 242 8.8
2009-05-08 07:33:25 51°12.553 2°50.412 244.3 4.6 242 8.7
2009-05-08 07:33:30 51°12.549 2°50.402 244.4 4.6 242 8.7
2009-05-08 07:33:35 51°12.546 2°50.393 244.6 4.6 242 8.7
2009-05-08 07:33:40 51°12.543 2°50.385 244.7 4.6 241 8.7
2009-05-08 07:33:45 51°12.54 2°50.376 244.7 4.6 241 8.7
2009-05-08 07:33:50 51°12.537 2°50.367 244.7 4.6 241 8.7
2009-05-08 07:33:55 51°12.534 2°50.357 244.9 4.6 242 8.7
2009-05-08 07:34:00 51°12.531 2°50.348 244.9 4.6 242 8.7
2009-05-08 07:34:05 51°12.528 2°50.339 244.8 4.6 242 8.7
2009-05-08 07:34:10 51°12.525 2°50.33 244.8 4.7 242 8.8
2009-05-08 07:34:15 51°12.522 2°50.321 244.8 4.6 242 8.7
2009-05-08 07:34:20 51°12.519 2°50.312 244.7 4.6 242 8.7
2009-05-08 07:34:25 51°12.516 2°50.303 244.8 4.7 242 8.8
2009-05-08 07:34:30 51°12.513 2°50.294 245.3 4.7 242 8.8
2009-05-08 07:34:35 51°12.51 2°50.285 245.5 4.7 242 8.7
2009-05-08 07:34:40 51°12.507 2°50.276 245.5 4.6 242 8.6
2009-05-08 07:34:45 51°12.504 2°50.267 245.6 4.6 242 8.6
2009-05-08 07:34:50 51°12.501 2°50.258 245.4 4.6 242 8.7
2009-05-08 07:34:55 51°12.498 2°50.249 245.5 4.6 243 8.7
2009-05-08 07:35:00 51°12.495 2°50.24 245.4 4.6 243 8.8
2009-05-08 07:35:05 51°12.492 2°50.231 245.5 4.6 242 8.8
2009-05-08 07:35:10 51°12.489 2°50.222 245.5 4.6 242 8.8
2009-05-08 07:35:15 51°12.486 2°50.213 245.5 4.6 244 8.8
2009-05-08 07:35:20 51°12.483 2°50.204 245.6 4.6 243 8.8
2009-05-08 07:35:25 51°12.481 2°50.195 245.4 4.6 243 8.7
2009-05-08 07:35:30 51°12.477 2°50.186 245.4 4.6 242 8.8
2009-05-08 07:35:35 51°12.475 2°50.177 245.3 4.6 243 8.7
2009-05-08 07:35:40 51°12.471 2°50.168 244.6 4.6 241 8.7
2009-05-08 07:35:45 51°12.469 2°50.16 243.3 4.5 241 8.7
2009-05-08 07:35:50 51°12.465 2°50.151 242.2 4.5 240 8.7
2009-05-08 07:35:54 51°12.463 2°50.144 241.4 4.5 239 8.7
2009-05-08 07:36:00 51°12.459 2°50.134 240.6 4.5 238 8.7
2009-05-08 07:36:05 51°12.456 2°50.126 239.9 4.5 238 8.7
2009-05-08 07:36:10 51°12.452 2°50.117 239.1 4.5 237 8.7
2009-05-08 07:36:15 51°12.449 2°50.109 238.6 4.5 237 8.8
2009-05-08 07:36:20 51°12.445 2°50.101 238.1 4.5 236 8.7
2009-05-08 07:36:25 51°12.442 2°50.093 237.4 4.5 235 8.7
2009-05-08 07:36:30 51°12.438 2°50.084 237.1 4.5 236 8.7
2009-05-08 07:36:35 51°12.435 2°50.076 236.8 4.4 234 8.7
2009-05-08 07:36:40 51°12.431 2°50.068 236.7 4.5 235 8.7
2009-05-08 07:36:45 51°12.427 2°50.06 236.5 4.5 235 8.7
2009-05-08 07:36:50 51°12.424 2°50.052 236.3 4.5 235 8.7
2009-05-08 07:36:55 51°12.42 2°50.044 236 4.5 235 8.7
2009-05-08 07:37:00 51°12.417 2°50.036 235.9 4.5 234 8.7
2009-05-08 07:37:05 51°12.413 2°50.028 235.9 4.6 235 8.7
2009-05-08 07:37:10 51°12.409 2°50.019 236 4.6 234 8.7
2009-05-08 07:37:15 51°12.405 2°50.011 236.3 4.5 234 8.7
2009-05-08 07:37:20 51°12.402 2°50.004 236.1 4.5 234 8.7
2009-05-08 07:37:25 51°12.398 2°49.995 236 4.5 235 8.7
2009-05-08 07:37:30 51°12.395 2°49.987 236 4.5 235 8.7
2009-05-08 07:37:35 51°12.391 2°49.979 236.7 4.5 236 8.7
2009-05-08 07:37:40 51°12.387 2°49.97 236.9 4.6 236 8.7
2009-05-08 07:37:45 51°12.384 2°49.962 237.8 4.5 236 8.7
2009-05-08 07:37:50 51°12.381 2°49.954 238.3 4.5 236 8.7
2009-05-08 07:37:54 51°12.378 2°49.947 238.4 4.5 236 8.6
2009-05-08 07:38:00 51°12.374 2°49.937 238.4 4.4 235 8.7
2009-05-08 07:38:05 51°12.37 2°49.929 238.2 4.4 235 8.6
2009-05-08 07:38:10 51°12.367 2°49.921 237.6 4.4 236 8.6
2009-05-08 07:38:15 51°12.363 2°49.913 237.6 4.4 235 8.7
2009-05-08 07:38:20 51°12.36 2°49.905 237.6 4.4 237 8.7
2009-05-08 07:38:25 51°12.356 2°49.897 237.9 4.4 237 8.7
2009-05-08 07:38:30 51°12.353 2°49.889 238.5 4.4 237 8.6
2009-05-08 07:38:35 51°12.35 2°49.881 238.9 4.4 237 8.7
2009-05-08 07:38:40 51°12.347 2°49.873 239.4 4.4 238 8.7
2009-05-08 07:38:45 51°12.343 2°49.864 239.8 4.4 238 8.6
2009-05-08 07:38:50 51°12.34 2°49.856 239.9 4.4 238 8.8
2009-05-08 07:38:55 51°12.337 2°49.848 240.2 4.3 238 8.7
2009-05-08 07:39:00 51°12.334 2°49.84 240.2 4.3 237 8.6
2009-05-08 07:39:05 51°12.33 2°49.832 239.4 4.2 237 8.6
2009-05-08 07:39:10 51°12.327 2°49.824 239.3 4.2 237 8.7
2009-05-08 07:39:15 51°12.324 2°49.816 239.1 4.3 238 8.7
2009-05-08 07:39:20 51°12.321 2°49.809 238.9 4 237 8.7
2009-05-08 07:39:25 51°12.318 2°49.802 239.3 3.8 238 8.7
2009-05-08 07:39:30 51°12.316 2°49.795 239.6 3.6 237 8.7
2009-05-08 07:39:35 51°12.313 2°49.788 240 3.5 238 8.7
2009-05-08 07:39:40 51°12.311 2°49.782 240.3 3.3 237 8.7
2009-05-08 07:39:45 51°12.308 2°49.776 240.4 3.2 238 8.7
2009-05-08 07:39:50 51°12.306 2°49.77 240.6 3.1 237 8.7
2009-05-08 07:39:54 51°12.304 2°49.766 240.9 3 237 8.8
2009-05-08 07:40:00 51°12.301 2°49.759 241 3 237 8.8
2009-05-08 07:40:05 51°12.299 2°49.754 241 2.9 236 8.8
2009-05-08 07:40:10 51°12.297 2°49.749 240.7 2.9 237 8.7
2009-05-08 07:40:15 51°12.295 2°49.744 240.4 2.7 236 8.7
2009-05-08 07:40:20 51°12.293 2°49.739 240.5 2.7 234 8.7
2009-05-08 07:40:25 51°12.291 2°49.734 240.2 2.5 235 8.8
2009-05-08 07:40:30 51°12.289 2°49.73 239.8 2.4 235 8.7
2009-05-08 07:40:35 51°12.287 2°49.726 239.4 2.3 235 8.7
2009-05-08 07:40:40 51°12.285 2°49.722 238.9 2.3 233 8.7
2009-05-08 07:40:45 51°12.283 2°49.718 238.7 2.3 233 8.7
2009-05-08 07:40:50 51°12.282 2°49.714 238.5 2.2 234 8.7
2009-05-08 07:40:55 51°12.28 2°49.71 238.2 2.1 233 8.7
2009-05-08 07:41:00 51°12.278 2°49.706 238.2 2 233 8.7
2009-05-08 07:41:05 51°12.276 2°49.703 237.8 1.9 234 8.7
2009-05-08 07:41:10 51°12.275 2°49.7 237.7 1.9 233 8.7
2009-05-08 07:41:15 51°12.273 2°49.696 237.6 1.9 233 8.7
2009-05-08 07:41:20 51°12.272 2°49.693 237.5 1.8 232 8.7
2009-05-08 07:41:25 51°12.27 2°49.69 237.4 1.7 234 8.7
2009-05-08 07:41:30 51°12.269 2°49.688 237.3 1.7 232 8.7
2009-05-08 07:41:35 51°12.268 2°49.685 237.4 1.6 234 8.7
2009-05-08 07:41:40 51°12.266 2°49.682 237.4 1.6 233 8.7
2009-05-08 07:41:45 51°12.265 2°49.679 237.4 1.6 233 8.7
2009-05-08 07:41:50 51°12.264 2°49.677 237.6 1.5 233 8.7
2009-05-08 07:41:54 51°12.263 2°49.675 237.6 1.4 233 8.7
2009-05-08 07:42:00 51°12.262 2°49.671 237.8 1.4 234 8.7
2009-05-08 07:42:05 51°12.26 2°49.669 238.2 1.3 232 8.7
2009-05-08 07:42:10 51°12.259 2°49.667 238.1 1.4 233 8.7
2009-05-08 07:42:15 51°12.258 2°49.664 238.3 1.3 232 8.7
2009-05-08 07:42:20 51°12.257 2°49.662 238.7 1.3 231 8.6
2009-05-08 07:42:25 51°12.256 2°49.66 238.8 1.3 231 8.7
2009-05-08 07:42:30 51°12.255 2°49.658 239 1.3 232 8.7
2009-05-08 07:42:35 51°12.254 2°49.656 239.4 1.3 228 8.7
2009-05-08 07:42:40 51°12.252 2°49.654 239.4 1.2 226 8.7
2009-05-08 07:42:45 51°12.251 2°49.652 239.5 1.1 226 8.7
2009-05-08 07:42:50 51°12.25 2°49.65 239 1.1 228 8.6
2009-05-08 07:42:55 51°12.249 2°49.649 238.5 1.1 224 8.6
2009-05-08 07:43:00 51°12.248 2°49.647 238.3 1 226 8.7
2009-05-08 07:43:05 51°12.247 2°49.646 237.9 1 220 8.7
2009-05-08 07:43:10 51°12.246 2°49.644 237.4 1 222 8.7
2009-05-08 07:43:15 51°12.245 2°49.643 236.8 1 216 8.7
2009-05-08 07:43:20 51°12.245 2°49.642 236.5 0.9 222 8.6
2009-05-08 07:43:25 51°12.243 2°49.641 235.6 0.9 218 8.7
2009-05-08 07:43:30 51°12.243 2°49.639 234.7 0.9 218 8.7
2009-05-08 07:43:35 51°12.241 2°49.638 233.7 1 216 8.7
2009-05-08 07:43:40 51°12.24 2°49.637 232.6 1 219 8.7
2009-05-08 07:43:45 51°12.239 2°49.635 231.6 1.1 218 8.7
2009-05-08 07:43:50 51°12.238 2°49.634 230.5 1.2 222 8.7
2009-05-08 07:43:54 51°12.237 2°49.632 229.7 1.4 221 8.8
2009-05-08 07:44:00 51°12.235 2°49.629 229.2 1.7 221 8.9
2009-05-08 07:44:05 51°12.233 2°49.627 228.8 2 221 8.8
2009-05-08 07:44:10 51°12.23 2°49.623 228.4 2.2 221 8.7
2009-05-08 07:44:15 51°12.228 2°49.62 228.3 2.4 221 8.7
2009-05-08 07:44:20 51°12.225 2°49.616 228.5 2.7 222 8.6
2009-05-08 07:44:25 51°12.222 2°49.611 229.1 2.9 226 8.7
2009-05-08 07:44:30 51°12.219 2°49.606 230.2 3.1 227 8.7
2009-05-08 07:44:35 51°12.216 2°49.601 231.5 3.3 230 8.7
2009-05-08 07:44:40 51°12.213 2°49.595 232.8 3.5 230 8.7
2009-05-08 07:44:45 51°12.21 2°49.589 234.5 3.6 232 8.7
2009-05-08 07:44:50 51°12.207 2°49.582 235.6 3.7 233 8.7
2009-05-08 07:44:55 51°12.204 2°49.576 236.8 3.8 235 8.7
2009-05-08 07:45:00 51°12.201 2°49.568 238.3 4 237 8.7
2009-05-08 07:45:05 51°12.198 2°49.561 239.6 4 238 8.7
2009-05-08 07:45:10 51°12.195 2°49.553 240.3 4.1 238 8.6
2009-05-08 07:45:15 51°12.192 2°49.545 240.9 4.2 239 8.7
2009-05-08 07:45:20 51°12.189 2°49.537 241.5 4.3 239 8.7
2009-05-08 07:45:25 51°12.186 2°49.529 242 4.4 240 8.7
2009-05-08 07:45:30 51°12.183 2°49.521 242.5 4.4 240 8.7
2009-05-08 07:45:35 51°12.18 2°49.512 242.5 4.5 240 8.6
2009-05-08 07:45:40 51°12.177 2°49.503 242.6 4.5 240 8.7
2009-05-08 07:45:45 51°12.174 2°49.494 242.6 4.6 240 8.7
2009-05-08 07:45:50 51°12.171 2°49.486 242.5 4.6 240 8.7
2009-05-08 07:45:55 51°12.168 2°49.477 242.2 4.7 241 8.7
2009-05-08 07:46:00 51°12.164 2°49.468 241.9 4.7 240 8.7
2009-05-08 07:46:05 51°12.161 2°49.459 241.4 4.7 239 8.6
2009-05-08 07:46:10 51°12.158 2°49.45 240.7 4.7 238 8.6
2009-05-08 07:46:15 51°12.154 2°49.441 240 4.7 237 8.7
2009-05-08 07:46:20 51°12.151 2°49.432 239 4.7 237 8.6
2009-05-08 07:46:25 51°12.147 2°49.424 238 4.7 236 8.7
2009-05-08 07:46:30 51°12.143 2°49.415 237.3 4.7 236 8.7
2009-05-08 07:46:35 51°12.139 2°49.406 236.7 4.7 236 8.6
2009-05-08 07:46:40 51°12.135 2°49.398 236 4.8 235 8.7
2009-05-08 07:46:45 51°12.132 2°49.389 235.3 4.7 234 8.6
2009-05-08 07:46:50 51°12.128 2°49.381 234.5 4.7 233 8.6
2009-05-08 07:46:55 51°12.124 2°49.373 234 4.7 233 8.6
2009-05-08 07:47:00 51°12.12 2°49.364 233.8 4.7 234 8.7
2009-05-08 07:47:05 51°12.116 2°49.356 233.7 4.7 234 8.7
2009-05-08 07:47:10 51°12.112 2°49.348 233.6 4.7 233 8.7
2009-05-08 07:47:15 51°12.108 2°49.34 233.8 4.6 234 8.7
2009-05-08 07:47:20 51°12.104 2°49.331 233.9 4.6 232 8.5
2009-05-08 07:47:25 51°12.101 2°49.324 233.9 4.6 231 8.6
2009-05-08 07:47:30 51°12.097 2°49.316 234.2 4.5 232 8.6
2009-05-08 07:47:35 51°12.093 2°49.308 234.5 4.5 234 8.5
2009-05-08 07:47:40 51°12.089 2°49.3 235.2 4.5 234 8.6
2009-05-08 07:47:45 51°12.086 2°49.292 235.8 4.4 235 8.6
2009-05-08 07:47:50 51°12.082 2°49.284 236.2 4.4 235 8.7
2009-05-08 07:47:55 51°12.079 2°49.276 236.6 4.4 235 8.7
2009-05-08 07:48:00 51°12.076 2°49.268 236.6 4.4 235 8.7
2009-05-08 07:48:05 51°12.072 2°49.26 236.4 4.5 235 8.8
2009-05-08 07:48:10 51°12.068 2°49.252 236.3 4.5 236 8.8
2009-05-08 07:48:15 51°12.065 2°49.244 236.3 4.5 234 8.7
2009-05-08 07:48:20 51°12.061 2°49.236 236.1 4.5 235 8.7
2009-05-08 07:48:25 51°12.057 2°49.228 235.9 4.5 233 8.7
2009-05-08 07:48:30 51°12.054 2°49.22 235.6 4.5 233 8.7
2009-05-08 07:48:35 51°12.05 2°49.212 235.4 4.5 232 8.7
2009-05-08 07:48:40 51°12.046 2°49.204 234.9 4.5 234 8.6
2009-05-08 07:48:45 51°12.043 2°49.196 234.5 4.5 233 8.6
2009-05-08 07:48:50 51°12.039 2°49.189 234.5 4.4 233 8.6
2009-05-08 07:48:55 51°12.035 2°49.181 234.3 4.4 233 8.6
2009-05-08 07:49:00 51°12.032 2°49.173 234.3 4.5 233 8.7
2009-05-08 07:49:05 51°12.028 2°49.165 234.1 4.5 232 8.7
2009-05-08 07:49:10 51°12.024 2°49.157 234.4 4.5 233 8.7
2009-05-08 07:49:15 51°12.02 2°49.149 234.3 4.5 233 8.7
2009-05-08 07:49:20 51°12.017 2°49.141 234.3 4.5 232 8.7
2009-05-08 07:49:25 51°12.013 2°49.133 234.2 4.5 232 8.7
2009-05-08 07:49:30 51°12.009 2°49.126 234.3 4.5 232 8.7
2009-05-08 07:49:34 51°12.006 2°49.12 233.6 4.4 232 8.5
2009-05-08 07:49:40 51°12.001 2°49.11 233.3 4.4 232 8.5
2009-05-08 07:49:45 51°11.998 2°49.103 233.8 4.4 232 8.6
2009-05-08 07:49:50 51°11.994 2°49.095 234.1 4.4 233 8.6
2009-05-08 07:49:55 51°11.99 2°49.087 234.2 4.5 233 8.7
2009-05-08 07:50:00 51°11.986 2°49.079 234.8 4.5 233 8.7
2009-05-08 07:50:05 51°11.983 2°49.071 235.2 4.5 234 8.7
2009-05-08 07:50:10 51°11.979 2°49.063 235.3 4.5 234 8.7
2009-05-08 07:50:15 51°11.975 2°49.055 235.7 4.5 234 8.7
2009-05-08 07:50:20 51°11.972 2°49.047 236.4 4.5 235 8.7
2009-05-08 07:50:25 51°11.968 2°49.039 236.9 4.5 235 8.7
2009-05-08 07:50:30 51°11.964 2°49.03 237.4 4.6 235 8.7
2009-05-08 07:50:35 51°11.961 2°49.022 237.8 4.5 236 8.7
2009-05-08 07:50:40 51°11.958 2°49.014 238.2 4.5 237 8.6
2009-05-08 07:50:45 51°11.954 2°49.005 238.6 4.5 236 8.6
2009-05-08 07:50:50 51°11.951 2°48.997 239.1 4.6 238 8.7
2009-05-08 07:50:55 51°11.947 2°48.988 239.6 4.6 237 8.6
2009-05-08 07:51:00 51°11.944 2°48.98 239.7 4.5 236 8.6
2009-05-08 07:51:05 51°11.94 2°48.972 239.7 4.5 236 8.6
2009-05-08 07:51:10 51°11.937 2°48.963 239.6 4.5 237 8.5
2009-05-08 07:51:15 51°11.934 2°48.955 239.7 4.5 236 8.5
2009-05-08 07:51:20 51°11.93 2°48.947 240.2 4.5 237 8.6
2009-05-08 07:51:25 51°11.927 2°48.938 239.7 4.5 237 8.6
2009-05-08 07:51:30 51°11.923 2°48.93 239.3 4.5 237 8.6
2009-05-08 07:51:35 51°11.92 2°48.922 238.9 4.5 236 8.5
2009-05-08 07:51:40 51°11.916 2°48.913 238.3 4.5 237 8.6
2009-05-08 07:51:45 51°11.913 2°48.905 237.8 4.4 236 8.6
2009-05-08 07:51:50 51°11.91 2°48.897 237.4 4.5 235 8.6
2009-05-08 07:51:55 51°11.906 2°48.889 237 4.5 236 8.6
2009-05-08 07:52:00 51°11.902 2°48.881 236.7 4.5 234 8.6
2009-05-08 07:52:05 51°11.899 2°48.873 236.4 4.4 235 8.6
2009-05-08 07:52:10 51°11.895 2°48.865 235.8 4.5 234 8.6
2009-05-08 07:52:14 51°11.892 2°48.859 235.4 4.4 234 8.6
2009-05-08 07:52:20 51°11.888 2°48.849 235.2 4.4 232 8.5
2009-05-08 07:52:25 51°11.884 2°48.842 234.6 4.4 233 8.5
2009-05-08 07:52:30 51°11.88 2°48.834 234.5 4.4 233 8.6
2009-05-08 07:52:35 51°11.876 2°48.826 234.5 4.4 233 8.6
2009-05-08 07:52:40 51°11.873 2°48.818 234.7 4.5 233 8.7
2009-05-08 07:52:45 51°11.869 2°48.81 234.8 4.5 233 8.6
2009-05-08 07:52:49 51°11.866 2°48.804 234.9 4.5 234 8.7
2009-05-08 07:52:55 51°11.862 2°48.794 235.2 4.5 234 8.6
2009-05-08 07:53:00 51°11.858 2°48.786 235.7 4.5 235 8.6
2009-05-08 07:53:05 51°11.854 2°48.778 236.4 4.6 235 8.7
2009-05-08 07:53:09 51°11.851 2°48.771 237.2 4.5 235 8.7
2009-05-08 07:53:15 51°11.847 2°48.761 237.7 4.5 236 8.6
2009-05-08 07:53:20 51°11.844 2°48.753 238.1 4.5 236 8.6
2009-05-08 07:53:25 51°11.84 2°48.745 238.3 4.4 236 8.6
2009-05-08 07:53:30 51°11.837 2°48.737 238.3 4.4 235 8.6
2009-05-08 07:53:35 51°11.833 2°48.729 238.2 4.5 235 8.6
2009-05-08 07:53:40 51°11.83 2°48.721 238.4 4.4 237 8.6
2009-05-08 07:53:45 51°11.827 2°48.713 238.6 4.4 236 8.6
2009-05-08 07:53:50 51°11.823 2°48.705 239 4.4 237 8.6
2009-05-08 07:53:55 51°11.82 2°48.696 239.2 4.4 237 8.6
2009-05-08 07:54:00 51°11.817 2°48.688 239.5 4.4 237 8.6
2009-05-08 07:54:05 51°11.814 2°48.68 239.6 4.4 238 8.6
2009-05-08 07:54:10 51°11.81 2°48.672 239.8 4.4 237 8.6
2009-05-08 07:54:15 51°11.807 2°48.663 240 4.4 238 8.6
2009-05-08 07:54:20 51°11.804 2°48.655 240.1 4.5 237 8.6
2009-05-08 07:54:25 51°11.8 2°48.647 240.2 4.5 238 8.6
2009-05-08 07:54:30 51°11.797 2°48.638 240.2 4.5 238 8.6
2009-05-08 07:54:35 51°11.794 2°48.63 240 4.4 237 8.5
2009-05-08 07:54:40 51°11.79 2°48.622 240 4.5 237 8.5
2009-05-08 07:54:45 51°11.787 2°48.613 240 4.5 238 8.5
2009-05-08 07:54:50 51°11.784 2°48.605 239.7 4.5 237 8.6
2009-05-08 07:54:55 51°11.78 2°48.597 240.1 4.5 238 8.6
2009-05-08 07:55:00 51°11.777 2°48.588 240 4.4 237 8.5
2009-05-08 07:55:05 51°11.774 2°48.58 239.7 4.4 237 8.5
2009-05-08 07:55:10 51°11.77 2°48.572 239.6 4.4 237 8.5
2009-05-08 07:55:15 51°11.767 2°48.563 239.6 4.5 237 8.5
2009-05-08 07:55:20 51°11.764 2°48.555 239.6 4.5 239 8.6
2009-05-08 07:55:25 51°11.76 2°48.546 239.7 4.4 238 8.6
2009-05-08 07:55:30 51°11.757 2°48.538 239.8 4.4 237 8.6
2009-05-08 07:55:35 51°11.754 2°48.53 239.9 4.4 236 8.6
2009-05-08 07:55:40 51°11.751 2°48.522 239.7 4.4 238 8.6
2009-05-08 07:55:45 51°11.747 2°48.513 239.4 4.4 237 8.5
2009-05-08 07:55:50 51°11.744 2°48.505 239.2 4.4 237 8.6
2009-05-08 07:55:54 51°11.741 2°48.498 239.3 4.5 237 8.6
2009-05-08 07:56:00 51°11.737 2°48.489 239.4 4.5 238 8.6
2009-05-08 07:56:05 51°11.734 2°48.48 239.8 4.5 238 8.6
2009-05-08 07:56:10 51°11.73 2°48.472 239.6 4.5 237 8.6
2009-05-08 07:56:15 51°11.727 2°48.464 239.5 4.4 237 8.5
2009-05-08 07:56:20 51°11.724 2°48.456 239.3 4.5 237 8.6
2009-05-08 07:56:25 51°11.72 2°48.448 239.1 4.4 236 8.6
2009-05-08 07:56:30 51°11.717 2°48.44 238.4 4.3 235 8.5
2009-05-08 07:56:35 51°11.713 2°48.432 238 4.3 236 8.5
2009-05-08 07:56:40 51°11.71 2°48.424 238.2 4.3 235 8.5
2009-05-08 07:56:45 51°11.706 2°48.416 238.2 4.4 237 8.6
2009-05-08 07:56:49 51°11.704 2°48.409 238.6 4.4 237 8.6
2009-05-08 07:56:55 51°11.7 2°48.4 238.9 4.4 236 8.5
2009-05-08 07:57:00 51°11.696 2°48.392 239.1 4.4 237 8.6
2009-05-08 07:57:05 51°11.693 2°48.383 239.4 4.4 236 8.6
2009-05-08 07:57:09 51°11.69 2°48.377 239.4 4.4 237 8.6
2009-05-08 07:57:15 51°11.686 2°48.368 239.6 4.4 236 8.6
2009-05-08 07:57:20 51°11.683 2°48.359 239.6 4.4 236 8.6
2009-05-08 07:57:25 51°11.68 2°48.351 239.6 4.4 236 8.6
2009-05-08 07:57:30 51°11.676 2°48.343 239.6 4.4 236 8.6
2009-05-08 07:57:35 51°11.673 2°48.335 239.8 4.3 237 8.6
2009-05-08 07:57:40 51°11.67 2°48.327 239.3 4.3 235 8.5
2009-05-08 07:57:45 51°11.666 2°48.319 239.3 4.3 236 8.5
2009-05-08 07:57:50 51°11.663 2°48.311 239.1 4.3 236 8.5
2009-05-08 07:57:55 51°11.66 2°48.303 239.1 4.4 237 8.5
2009-05-08 07:58:00 51°11.656 2°48.295 239.1 4.4 236 8.5
2009-05-08 07:58:05 51°11.653 2°48.287 238.9 4.4 236 8.6
2009-05-08 07:58:10 51°11.649 2°48.279 238.9 4.5 235 8.5
2009-05-08 07:58:15 51°11.646 2°48.271 238.5 4.4 237 8.5
2009-05-08 07:58:20 51°11.642 2°48.263 238.7 4.4 236 8.6
2009-05-08 07:58:25 51°11.639 2°48.255 239 4.5 237 8.6
2009-05-08 07:58:30 51°11.636 2°48.246 239.3 4.5 237 8.7
2009-05-08 07:58:35 51°11.632 2°48.238 239.5 4.5 238 8.7
2009-05-08 07:58:40 51°11.629 2°48.229 239.7 4.5 237 8.6
2009-05-08 07:58:45 51°11.625 2°48.221 239.9 4.5 238 8.7
2009-05-08 07:58:50 51°11.622 2°48.213 240.3 4.5 238 8.7
2009-05-08 07:58:55 51°11.619 2°48.204 240.6 4.6 239 8.6
2009-05-08 07:59:00 51°11.616 2°48.195 240.6 4.6 238 8.7
2009-05-08 07:59:05 51°11.612 2°48.186 241.1 4.7 239 8.7
2009-05-08 07:59:10 51°11.609 2°48.178 240.8 4.6 238 8.7
2009-05-08 07:59:15 51°11.606 2°48.169 240.4 4.6 238 8.6
2009-05-08 07:59:20 51°11.602 2°48.161 240.3 4.6 235 8.6
2009-05-08 07:59:25 51°11.599 2°48.152 240.1 4.6 236 8.6
2009-05-08 07:59:30 51°11.595 2°48.144 238.9 4.6 234 8.6
2009-05-08 07:59:35 51°11.591 2°48.135 237.8 4.6 236 8.6
2009-05-08 07:59:40 51°11.588 2°48.127 237.1 4.6 234 8.6
2009-05-08 07:59:45 51°11.584 2°48.119 236.4 4.6 233 8.7
2009-05-08 07:59:50 51°11.58 2°48.111 235.6 4.6 234 8.6
2009-05-08 07:59:55 51°11.576 2°48.102 235.1 4.6 233 8.6
2009-05-08 08:00:00 51°11.572 2°48.094 234.5 4.6 234 8.6